createdAt,value
2023-05-14T00:00:50.146Z,3.58
2023-05-14T00:03:28.690Z,2.80
2023-05-14T00:05:56.274Z,3.17
2023-05-14T00:08:23.446Z,2.90
2023-05-14T00:10:51.047Z,2.75
2023-05-14T00:13:18.198Z,3.13
2023-05-14T00:15:45.784Z,2.88
2023-05-14T00:18:13.073Z,3.08
2023-05-14T00:20:41.136Z,2.90
2023-05-14T00:23:08.398Z,2.80
2023-05-14T00:25:36.277Z,3.33
2023-05-14T00:28:04.143Z,2.95
2023-05-14T00:30:31.693Z,3.30
2023-05-14T00:32:58.884Z,3.15
2023-05-14T00:35:26.637Z,3.22
2023-05-14T00:37:53.929Z,3.05
2023-05-14T00:40:25.930Z,3.40
2023-05-14T00:42:54.284Z,3.08
2023-05-14T00:45:22.298Z,3.08
2023-05-14T00:47:49.917Z,3.08
2023-05-14T00:50:18.065Z,3.30
2023-05-14T00:52:45.335Z,3.10
2023-05-14T00:55:16.691Z,3.38
2023-05-14T01:00:12.807Z,3.20
2023-05-14T01:02:40.166Z,2.85
2023-05-14T01:05:08.544Z,3.20
2023-05-14T01:07:41.590Z,4.07
2023-05-14T01:10:16.034Z,2.72
2023-05-14T01:13:11.962Z,3.30
2023-05-14T01:15:41.474Z,2.80
2023-05-14T01:18:10.881Z,3.03
2023-05-14T01:20:38.418Z,3.10
2023-05-14T01:23:06.070Z,2.80
2023-05-14T01:25:33.889Z,3.45
2023-05-14T01:28:17.937Z,3.10
2023-05-14T01:31:16.248Z,3.53
2023-05-14T01:33:44.853Z,3.75
2023-05-14T01:36:13.305Z,3.20
2023-05-14T01:38:45.716Z,3.15
2023-05-14T01:41:15.042Z,2.83
2023-05-14T01:43:42.587Z,3.50
2023-05-14T01:46:10.188Z,3.08
2023-05-14T01:48:37.998Z,3.63
2023-05-14T01:51:05.535Z,4.07
2023-05-14T01:53:34.952Z,3.53
2023-05-14T01:56:02.514Z,3.30
2023-05-14T01:58:29.859Z,3.65
2023-05-14T02:00:57.368Z,3.70
2023-05-14T02:03:24.715Z,3.70
2023-05-14T02:05:52.280Z,3.95
2023-05-14T02:08:19.447Z,3.47
2023-05-14T02:10:46.977Z,3.95
2023-05-14T02:13:15.518Z,3.35
2023-05-14T02:15:43.034Z,3.25
2023-05-14T02:18:10.276Z,3.20
2023-05-14T02:20:37.786Z,3.53
2023-05-14T02:23:04.995Z,4.05
2023-05-14T02:25:32.472Z,3.83
2023-05-14T02:27:59.656Z,3.47
2023-05-14T02:30:27.125Z,3.70
2023-05-14T02:32:54.564Z,3.75
2023-05-14T02:35:22.110Z,3.90
2023-05-14T02:37:49.274Z,3.83
2023-05-14T02:40:16.785Z,3.80
2023-05-14T02:42:44.036Z,3.72
2023-05-14T02:45:11.751Z,3.72
2023-05-14T02:47:40.728Z,3.85
2023-05-14T02:50:08.946Z,3.50
2023-05-14T02:52:36.404Z,4.18
2023-05-14T02:55:04.916Z,3.97
2023-05-14T02:57:32.427Z,4.22
2023-05-14T03:00:00.155Z,3.97
2023-05-14T03:02:27.886Z,3.80
2023-05-14T03:04:55.819Z,4.38
2023-05-14T03:07:23.074Z,3.55
2023-05-14T03:09:50.502Z,3.85
2023-05-14T03:12:18.248Z,4.50
2023-05-14T03:14:45.665Z,3.40
2023-05-14T03:17:13.079Z,4.35
2023-05-14T03:19:40.585Z,4.00
2023-05-14T03:22:07.942Z,4.03
2023-05-14T03:24:35.651Z,4.47
2023-05-14T03:27:03.464Z,4.00
2023-05-14T03:29:31.046Z,4.28
2023-05-14T03:31:58.284Z,4.50
2023-05-14T03:34:25.903Z,4.72
2023-05-14T03:36:53.153Z,5.18
2023-05-14T03:39:21.193Z,5.03
2023-05-14T03:41:48.670Z,4.13
2023-05-14T03:44:16.590Z,4.05
2023-05-14T03:46:44.695Z,4.63
2023-05-14T03:49:12.296Z,3.60
2023-05-14T03:51:39.812Z,3.78
2023-05-14T03:54:07.656Z,4.00
2023-05-14T03:56:34.894Z,4.28
2023-05-14T03:59:03.755Z,4.05
2023-05-14T04:01:32.611Z,4.47
2023-05-14T04:04:00.304Z,4.13
2023-05-14T04:06:27.598Z,4.35
2023-05-14T04:08:55.658Z,3.85
2023-05-14T04:11:22.856Z,4.28
2023-05-14T04:13:50.312Z,4.20
2023-05-14T04:16:17.553Z,4.20
2023-05-14T04:18:45.235Z,3.72
2023-05-14T04:21:12.638Z,4.05
2023-05-14T04:23:40.113Z,4.05
2023-05-14T04:26:07.247Z,4.03
2023-05-14T04:28:34.714Z,4.82
2023-05-14T04:31:01.901Z,4.93
2023-05-14T04:33:29.379Z,5.40
2023-05-14T04:35:56.659Z,5.47
2023-05-14T04:38:24.166Z,5.30
2023-05-14T04:40:51.486Z,5.25
2023-05-14T04:43:18.937Z,5.40
2023-05-14T04:45:46.277Z,5.32
2023-05-14T04:48:13.852Z,4.45
2023-05-14T04:50:41.113Z,5.70
2023-05-14T04:53:08.646Z,4.68
2023-05-14T04:55:35.897Z,5.10
2023-05-14T04:58:03.657Z,5.10
2023-05-14T05:00:31.032Z,4.35
2023-05-14T05:02:58.842Z,4.18
2023-05-14T05:05:26.247Z,3.78
2023-05-14T05:07:53.858Z,4.10
2023-05-14T05:10:21.270Z,4.00
2023-05-14T05:12:48.869Z,4.40
2023-05-14T05:15:16.268Z,4.15
2023-05-14T05:17:43.783Z,3.20
2023-05-14T05:20:11.546Z,3.28
2023-05-14T05:22:39.107Z,3.45
2023-05-14T05:25:06.584Z,3.80
2023-05-14T05:27:34.341Z,3.40
2023-05-14T05:30:02.412Z,3.75
2023-05-14T05:32:31.431Z,2.97
2023-05-14T05:34:58.654Z,3.38
2023-05-14T05:37:26.234Z,3.83
2023-05-14T05:39:54.067Z,3.13
2023-05-14T05:42:22.559Z,4.00
2023-05-14T05:44:49.745Z,4.25
2023-05-14T05:47:17.315Z,3.30
2023-05-14T05:49:44.497Z,3.10
2023-05-14T05:52:12.110Z,3.22
2023-05-14T05:54:40.005Z,3.63
2023-05-14T05:57:07.471Z,3.20
2023-05-14T05:59:34.717Z,3.47
2023-05-14T06:02:02.185Z,3.40
2023-05-14T06:04:29.505Z,3.72
2023-05-14T06:06:57.885Z,3.42
2023-05-14T06:09:25.065Z,3.53
2023-05-14T06:11:52.499Z,3.40
2023-05-14T06:14:19.818Z,4.03
2023-05-14T06:16:47.308Z,3.92
2023-05-14T06:19:14.646Z,4.50
2023-05-14T06:21:42.204Z,3.88
2023-05-14T06:24:09.624Z,4.22
2023-05-14T06:26:37.058Z,3.65
2023-05-14T06:29:04.453Z,3.92
2023-05-14T06:31:32.016Z,3.70
2023-05-14T06:33:59.213Z,3.50
2023-05-14T06:36:26.663Z,4.35
2023-05-14T06:38:53.891Z,3.53
2023-05-14T06:41:21.399Z,3.85
2023-05-14T06:43:48.588Z,3.30
2023-05-14T06:46:16.267Z,3.40
2023-05-14T06:48:43.589Z,3.72
2023-05-14T06:51:11.289Z,3.47
2023-05-14T06:53:38.418Z,3.60
2023-05-14T06:56:06.139Z,3.63
2023-05-14T06:58:33.339Z,3.90
2023-05-14T07:01:01.000Z,3.83
2023-05-14T07:03:29.182Z,3.58
2023-05-14T07:05:56.731Z,3.45
2023-05-14T07:08:23.898Z,3.60
2023-05-14T07:10:51.504Z,3.85
2023-05-14T07:13:18.694Z,3.78
2023-05-14T07:15:46.152Z,4.15
2023-05-14T07:18:13.416Z,4.15
2023-05-14T07:20:40.916Z,3.85
2023-05-14T07:23:08.329Z,3.78
2023-05-14T07:25:35.997Z,4.05
2023-05-14T07:28:03.292Z,4.90
2023-05-14T07:30:30.909Z,4.95
2023-05-14T07:32:58.215Z,3.58
2023-05-14T07:35:25.732Z,4.93
2023-05-14T07:37:53.153Z,4.32
2023-05-14T07:40:20.783Z,4.30
2023-05-14T07:42:47.999Z,4.30
2023-05-14T07:45:15.548Z,3.95
2023-05-14T07:47:42.984Z,3.80
2023-05-14T07:50:11.365Z,3.78
2023-05-14T07:52:38.637Z,3.50
2023-05-14T07:55:06.967Z,3.60
2023-05-14T07:57:34.199Z,3.40
2023-05-14T08:00:02.140Z,3.53
2023-05-14T08:02:39.808Z,3.65
2023-05-14T08:05:07.788Z,3.42
2023-05-14T08:07:35.081Z,3.58
2023-05-14T08:10:04.338Z,4.13
2023-05-14T08:12:31.870Z,2.97
2023-05-14T08:14:59.422Z,3.83
2023-05-14T08:17:26.763Z,3.55
2023-05-14T08:19:54.521Z,4.78
2023-05-14T08:22:21.895Z,5.15
2023-05-14T08:24:49.348Z,5.60
2023-05-14T08:27:16.754Z,5.90
2023-05-14T08:29:44.251Z,6.10
2023-05-14T08:32:21.972Z,7.57
2023-05-14T08:34:51.931Z,7.57
2023-05-14T08:37:19.267Z,6.93
2023-05-14T08:39:46.820Z,6.38
2023-05-14T08:42:17.996Z,7.00
2023-05-14T08:44:52.298Z,7.30
2023-05-14T08:47:22.485Z,4.95
2023-05-14T08:49:58.413Z,6.15
2023-05-14T08:52:26.123Z,4.55
2023-05-14T08:54:56.443Z,4.35
2023-05-14T08:57:26.740Z,4.00
2023-05-14T08:59:54.481Z,2.65
2023-05-14T09:02:25.090Z,2.95
2023-05-14T09:04:56.475Z,2.90
2023-05-14T09:07:24.453Z,2.25
2023-05-14T09:09:52.889Z,2.63
2023-05-14T09:12:20.572Z,2.60
2023-05-14T09:14:49.625Z,3.20
2023-05-14T09:17:17.910Z,2.80
2023-05-14T09:19:53.078Z,4.65
2023-05-14T09:22:20.742Z,3.97
2023-05-14T09:25:06.808Z,3.67
2023-05-14T09:27:34.377Z,2.88
2023-05-14T09:30:13.360Z,2.65
2023-05-14T09:32:44.246Z,3.53
2023-05-14T09:35:13.258Z,4.65
2023-05-14T09:37:45.252Z,4.03
2023-05-14T09:40:13.620Z,4.00
2023-05-14T09:42:41.490Z,3.20
2023-05-14T09:45:09.985Z,4.28
2023-05-14T09:47:38.821Z,4.13
2023-05-14T09:50:07.538Z,4.10
2023-05-14T09:52:35.686Z,4.70
2023-05-14T09:55:03.485Z,4.03
2023-05-14T09:57:31.049Z,4.53
2023-05-14T09:59:58.545Z,5.10
2023-05-14T10:02:30.280Z,4.63
2023-05-14T10:05:02.600Z,4.75
2023-05-14T10:07:37.074Z,3.83
2023-05-14T10:10:08.217Z,4.68
2023-05-14T10:12:39.444Z,4.40
2023-05-14T10:15:16.798Z,4.90
2023-05-14T10:17:49.828Z,4.47
2023-05-14T10:20:18.073Z,4.35
2023-05-14T10:22:46.172Z,4.47
2023-05-14T10:25:14.131Z,3.92
2023-05-14T10:27:42.462Z,5.03
2023-05-14T10:30:13.359Z,4.20
2023-05-14T10:32:42.008Z,4.53
2023-05-14T10:35:22.265Z,4.80
2023-05-14T10:37:51.776Z,4.00
2023-05-14T10:40:23.614Z,4.20
2023-05-14T10:42:51.045Z,4.60
2023-05-14T10:45:18.804Z,4.18
2023-05-14T10:47:47.306Z,5.18
2023-05-14T10:50:16.094Z,4.50
2023-05-14T10:52:46.527Z,4.15
2023-05-14T10:55:16.174Z,5.70
2023-05-14T10:57:45.805Z,5.53
2023-05-14T11:00:14.901Z,5.43
2023-05-14T11:02:44.750Z,5.65
2023-05-14T11:05:16.900Z,4.70
2023-05-14T11:07:49.249Z,4.95
2023-05-14T11:10:18.852Z,5.13
2023-05-14T11:12:53.869Z,5.13
2023-05-14T11:15:22.760Z,5.10
2023-05-14T11:17:51.530Z,4.80
2023-05-14T11:20:20.343Z,4.95
2023-05-14T11:22:49.064Z,4.95
2023-05-14T11:25:17.874Z,4.80
2023-05-14T11:27:47.272Z,5.07
2023-05-14T11:30:19.675Z,5.40
2023-05-14T11:32:48.967Z,4.55
2023-05-14T11:35:18.046Z,4.63
2023-05-14T11:37:52.500Z,4.63
2023-05-14T11:40:20.277Z,4.05
2023-05-14T11:42:47.502Z,4.15
2023-05-14T11:45:26.433Z,3.70
2023-05-14T11:47:54.850Z,3.85
2023-05-14T11:50:23.193Z,4.53
2023-05-14T11:52:51.138Z,4.18
2023-05-14T11:55:18.803Z,4.32
2023-05-14T11:57:46.196Z,4.68
2023-05-14T12:00:14.604Z,4.93
2023-05-14T12:02:42.034Z,4.20
2023-05-14T12:05:13.576Z,4.30
2023-05-14T12:07:41.991Z,4.55
2023-05-14T12:10:12.921Z,4.47
2023-05-14T12:12:40.269Z,5.30
2023-05-14T12:15:13.586Z,4.70
2023-05-14T12:17:41.340Z,4.35
2023-05-14T12:20:15.045Z,5.22
2023-05-14T12:22:42.752Z,5.07
2023-05-14T12:25:13.860Z,4.57
2023-05-14T12:27:44.847Z,4.80
2023-05-14T12:30:21.157Z,4.00
2023-05-14T12:32:53.058Z,4.18
2023-05-14T12:37:49.105Z,4.40
2023-05-14T12:40:16.660Z,4.55
2023-05-14T12:42:43.893Z,4.57
2023-05-14T12:45:12.553Z,4.80
2023-05-14T12:47:39.729Z,4.35
2023-05-14T12:50:07.858Z,4.00
2023-05-14T12:52:39.149Z,4.10
2023-05-14T12:55:09.260Z,4.78
2023-05-14T12:57:39.698Z,4.43
2023-05-14T13:00:12.898Z,4.07
2023-05-14T13:02:42.721Z,4.40
2023-05-14T13:05:12.726Z,4.53
2023-05-14T13:07:40.176Z,4.30
2023-05-14T13:10:08.339Z,4.00
2023-05-14T13:12:35.785Z,4.35
2023-05-14T13:15:03.415Z,4.22
2023-05-14T13:17:32.609Z,3.80
2023-05-14T13:20:00.234Z,3.88
2023-05-14T13:22:27.453Z,3.97
2023-05-14T13:24:54.926Z,4.20
2023-05-14T13:27:22.073Z,4.40
2023-05-14T13:29:49.529Z,4.63
2023-05-14T13:32:16.704Z,4.28
2023-05-14T13:34:44.215Z,4.30
2023-05-14T13:37:11.427Z,4.05
2023-05-14T13:39:40.903Z,3.97
2023-05-14T13:42:08.461Z,3.33
2023-05-14T13:44:36.295Z,3.17
2023-05-14T13:47:03.588Z,3.28
2023-05-14T13:49:31.089Z,3.35
2023-05-14T13:51:58.437Z,3.90
2023-05-14T13:54:26.097Z,2.50
2023-05-14T13:56:53.319Z,3.30
2023-05-14T13:59:21.155Z,2.63
2023-05-14T14:01:49.917Z,2.65
2023-05-14T14:04:17.856Z,3.10
2023-05-14T14:06:45.155Z,2.47
2023-05-14T14:09:13.855Z,2.45
2023-05-14T14:11:41.370Z,2.20
2023-05-14T14:14:08.873Z,1.90
2023-05-14T14:16:36.303Z,1.67
2023-05-14T14:19:03.983Z,1.67
2023-05-14T14:21:31.859Z,2.40
2023-05-14T14:23:59.369Z,2.08
2023-05-14T14:26:28.075Z,2.55
2023-05-14T14:28:55.757Z,2.30
2023-05-14T14:31:23.079Z,2.35
2023-05-14T14:33:50.674Z,3.15
2023-05-14T14:36:17.860Z,3.28
2023-05-14T14:38:45.414Z,2.92
2023-05-14T14:41:12.755Z,3.13
2023-05-14T14:43:41.156Z,3.13
2023-05-14T14:46:11.230Z,3.67
2023-05-14T14:48:39.143Z,2.70
2023-05-14T14:51:07.905Z,3.53
2023-05-14T14:53:37.056Z,3.30
2023-05-14T14:56:04.940Z,3.40
2023-05-14T14:58:32.994Z,3.20
2023-05-14T15:01:01.228Z,3.33
2023-05-14T15:03:29.310Z,2.90
2023-05-14T15:05:56.726Z,3.58
2023-05-14T15:08:28.078Z,3.28
2023-05-14T15:10:56.624Z,3.67
2023-05-14T15:13:24.756Z,3.50
2023-05-14T15:15:55.180Z,2.85
2023-05-14T15:18:22.649Z,3.45
2023-05-14T15:20:50.058Z,2.58
2023-05-14T15:23:17.715Z,2.30
2023-05-14T15:25:45.190Z,2.25
2023-05-14T15:28:12.655Z,2.30
2023-05-14T15:30:39.814Z,2.75
2023-05-14T15:33:11.077Z,2.75
2023-05-14T15:35:38.397Z,2.35
2023-05-14T15:38:07.031Z,2.35
2023-05-14T15:40:35.272Z,2.42
2023-05-14T15:43:03.117Z,1.98
2023-05-14T15:45:30.352Z,2.00
2023-05-14T15:47:57.890Z,2.28
2023-05-14T15:50:27.409Z,1.95
2023-05-14T15:52:55.040Z,2.13
2023-05-14T15:55:22.289Z,1.83
2023-05-14T15:57:49.829Z,1.90
2023-05-14T16:00:17.661Z,2.00
2023-05-14T16:02:45.251Z,1.98
2023-05-14T16:05:13.956Z,1.88
2023-05-14T16:07:42.834Z,2.47
2023-05-14T16:10:10.441Z,1.80
2023-05-14T16:12:37.912Z,2.00
2023-05-14T16:15:06.730Z,2.28
2023-05-14T16:17:34.940Z,2.33
2023-05-14T16:20:02.335Z,2.08
2023-05-14T16:22:32.760Z,2.00
2023-05-14T16:25:03.150Z,2.35
2023-05-14T16:27:31.747Z,2.33
2023-05-14T16:29:59.076Z,1.58
2023-05-14T16:32:26.602Z,2.08
2023-05-14T16:34:54.005Z,1.80
2023-05-14T16:37:21.755Z,2.13
2023-05-14T16:39:49.055Z,2.05
2023-05-14T16:42:16.556Z,1.83
2023-05-14T16:44:43.998Z,1.60
2023-05-14T16:47:11.549Z,2.22
2023-05-14T16:49:38.725Z,2.10
2023-05-14T16:52:06.769Z,2.08
2023-05-14T16:54:34.061Z,1.80
2023-05-14T16:57:01.714Z,2.08
2023-05-14T16:59:28.985Z,1.90
2023-05-14T17:01:56.504Z,1.77
2023-05-14T17:04:26.601Z,1.55
2023-05-14T17:06:54.596Z,1.92
2023-05-14T17:09:21.857Z,2.13
2023-05-14T17:11:49.358Z,1.95
2023-05-14T17:14:16.988Z,1.88
2023-05-14T17:16:44.485Z,2.28
2023-05-14T17:19:12.428Z,2.20
2023-05-14T17:21:40.128Z,2.17
2023-05-14T17:24:07.487Z,2.25
2023-05-14T17:26:35.090Z,2.20
2023-05-14T17:29:02.427Z,2.13
2023-05-14T17:31:30.105Z,2.55
2023-05-14T17:33:57.388Z,2.42
2023-05-14T17:36:25.213Z,1.90
2023-05-14T17:38:52.659Z,2.13
2023-05-14T17:41:20.259Z,2.15
2023-05-14T17:43:47.437Z,1.80
2023-05-14T17:46:15.129Z,1.77
2023-05-14T17:48:42.364Z,2.17
2023-05-14T17:51:09.927Z,2.08
2023-05-14T17:53:37.230Z,2.63
2023-05-14T17:56:05.311Z,2.50
2023-05-14T17:58:32.597Z,2.47
2023-05-14T18:01:00.290Z,2.50
2023-05-14T18:03:27.694Z,2.45
2023-05-14T18:05:55.408Z,2.83
2023-05-14T18:08:22.619Z,3.28
2023-05-14T18:10:50.088Z,2.50
2023-05-14T18:13:17.280Z,2.50
2023-05-14T18:15:45.066Z,2.47
2023-05-14T18:18:12.440Z,2.85
2023-05-14T18:20:39.974Z,2.92
2023-05-14T18:23:07.193Z,3.08
2023-05-14T18:25:34.704Z,3.00
2023-05-14T18:28:02.087Z,2.65
2023-05-14T18:30:29.618Z,2.83
2023-05-14T18:32:56.943Z,3.00
2023-05-14T18:35:24.549Z,4.03
2023-05-14T18:37:52.012Z,3.45
2023-05-14T18:40:19.784Z,2.95
2023-05-14T18:42:47.170Z,3.00
2023-05-14T18:45:14.737Z,2.78
2023-05-14T18:47:42.116Z,2.92
2023-05-14T18:50:09.943Z,3.10
2023-05-14T18:52:37.314Z,2.80
2023-05-14T18:55:05.366Z,3.03
2023-05-14T18:57:33.015Z,3.30
2023-05-14T19:00:02.079Z,2.80
2023-05-14T19:02:30.059Z,5.47
2023-05-14T19:04:57.862Z,3.67
2023-05-14T19:07:25.113Z,3.03
2023-05-14T19:09:53.171Z,3.33
2023-05-14T19:12:20.413Z,3.38
2023-05-14T19:14:47.925Z,3.22
2023-05-14T19:17:15.824Z,3.33
2023-05-14T19:19:44.328Z,3.58
2023-05-14T19:22:11.630Z,3.85
2023-05-14T19:24:40.175Z,3.35
2023-05-14T19:27:08.176Z,3.28
2023-05-14T19:29:36.931Z,3.22
2023-05-14T19:32:04.826Z,2.97
2023-05-14T19:34:32.403Z,3.33
2023-05-14T19:36:59.773Z,3.60
2023-05-14T19:39:27.504Z,3.20
2023-05-14T19:41:54.777Z,2.72
2023-05-14T19:44:22.242Z,3.40
2023-05-14T19:46:49.586Z,3.28
2023-05-14T19:49:17.156Z,3.30
2023-05-14T19:51:44.321Z,3.72
2023-05-14T19:54:11.829Z,3.55
2023-05-14T19:56:39.130Z,3.78
2023-05-14T19:59:07.003Z,3.22
2023-05-14T20:01:34.873Z,2.90
2023-05-14T20:04:02.544Z,3.42
2023-05-14T20:06:29.855Z,2.90
2023-05-14T20:08:57.417Z,3.50
2023-05-14T20:11:24.590Z,3.55
2023-05-14T20:13:52.067Z,3.38
2023-05-14T20:16:19.363Z,3.45
2023-05-14T20:18:47.013Z,3.40
2023-05-14T20:21:14.230Z,3.83
2023-05-14T20:23:41.848Z,3.22
2023-05-14T20:26:09.239Z,3.63
2023-05-14T20:28:36.841Z,4.05
2023-05-14T20:31:04.364Z,4.28
2023-05-14T20:33:31.878Z,4.25
2023-05-14T20:35:59.403Z,4.45
2023-05-14T20:38:29.406Z,3.75
2023-05-14T20:40:57.056Z,4.15
2023-05-14T20:43:26.456Z,4.97
2023-05-14T20:45:53.867Z,4.65
2023-05-14T20:48:22.147Z,4.57
2023-05-14T20:50:49.408Z,4.57
2023-05-14T20:53:16.940Z,3.85
2023-05-14T20:55:44.819Z,4.35
2023-05-14T20:58:12.354Z,4.03
2023-05-14T21:00:39.663Z,4.45
2023-05-14T21:03:07.302Z,4.63
2023-05-14T21:05:34.897Z,4.57
2023-05-14T21:08:02.447Z,3.95
2023-05-14T21:10:29.650Z,4.82
2023-05-14T21:12:57.130Z,4.78
2023-05-14T21:15:24.566Z,5.20
2023-05-14T21:17:52.540Z,4.88
2023-05-14T21:20:19.808Z,4.32
2023-05-14T21:22:47.247Z,4.28
2023-05-14T21:25:14.601Z,4.80
2023-05-14T21:27:42.105Z,5.38
2023-05-14T21:30:09.824Z,4.88
2023-05-14T21:32:37.299Z,4.68
2023-05-14T21:35:05.390Z,4.18
2023-05-14T21:37:33.191Z,4.03
2023-05-14T21:40:00.477Z,4.20
2023-05-14T21:42:28.089Z,3.97
2023-05-14T21:44:55.289Z,4.38
2023-05-14T21:47:22.883Z,4.25
2023-05-14T21:49:50.068Z,6.38
2023-05-14T21:52:17.514Z,4.20
2023-05-14T21:54:44.746Z,4.28
2023-05-14T21:57:12.204Z,4.03
2023-05-14T21:59:39.375Z,4.03
2023-05-14T22:02:07.901Z,4.47
2023-05-14T22:04:35.549Z,4.40
2023-05-14T22:07:03.702Z,3.95
2023-05-14T22:09:30.866Z,3.63
2023-05-14T22:11:58.681Z,3.72
2023-05-14T22:14:27.386Z,3.80
2023-05-14T22:16:55.140Z,4.10
2023-05-14T22:19:22.557Z,4.20
2023-05-14T22:21:50.026Z,3.80
2023-05-14T22:24:17.298Z,3.63
2023-05-14T22:26:44.915Z,4.30
2023-05-14T22:29:12.061Z,3.75
2023-05-14T22:31:39.716Z,3.50
2023-05-14T22:34:06.938Z,3.88
2023-05-14T22:36:34.500Z,4.03
2023-05-14T22:39:01.700Z,3.90
2023-05-14T22:41:29.493Z,4.63
2023-05-14T22:43:56.670Z,3.70
2023-05-14T22:46:24.354Z,4.38
2023-05-14T22:48:51.714Z,3.60
2023-05-14T22:51:19.174Z,3.60
2023-05-14T22:53:47.189Z,3.42
2023-05-14T22:56:15.392Z,3.97
2023-05-14T22:58:42.552Z,3.90
2023-05-14T23:01:10.032Z,3.75
2023-05-14T23:03:37.263Z,4.43
2023-05-14T23:06:05.045Z,3.90
2023-05-14T23:08:32.303Z,3.75
2023-05-14T23:10:59.808Z,3.45
2023-05-14T23:13:26.996Z,3.53
2023-05-14T23:15:54.552Z,3.75
2023-05-14T23:18:24.048Z,4.35
2023-05-14T23:20:51.713Z,3.70
2023-05-14T23:23:18.928Z,3.75
2023-05-14T23:25:46.559Z,4.10
2023-05-14T23:28:13.863Z,3.65
2023-05-14T23:30:41.550Z,3.80
2023-05-14T23:33:08.889Z,3.92
2023-05-14T23:35:38.246Z,3.50
2023-05-14T23:38:06.214Z,3.45
2023-05-14T23:40:34.245Z,4.25
2023-05-14T23:43:01.445Z,3.50
2023-05-14T23:45:29.847Z,3.97
2023-05-14T23:47:58.602Z,3.20
2023-05-14T23:50:26.118Z,4.10
2023-05-14T23:52:54.342Z,4.35
2023-05-14T23:55:22.322Z,4.00
2023-05-14T23:57:49.725Z,4.47
